createdAt,value
2018-05-04T00:01:34.987Z,7.00
2018-05-04T00:04:02.908Z,6.90
2018-05-04T00:06:30.466Z,6.90
2018-05-04T00:08:58.037Z,6.90
2018-05-04T00:11:25.625Z,6.80
2018-05-04T00:13:53.223Z,6.70
2018-05-04T00:16:21.595Z,6.60
2018-05-04T00:18:49.935Z,6.60
2018-05-04T00:21:17.503Z,6.50
2018-05-04T00:23:45.123Z,6.50
2018-05-04T00:26:12.692Z,6.50
2018-05-04T00:28:40.264Z,6.40
2018-05-04T00:31:07.819Z,6.40
2018-05-04T00:33:35.403Z,6.30
2018-05-04T00:36:03.017Z,6.30
2018-05-04T00:38:30.587Z,6.30
2018-05-04T00:40:58.172Z,6.30
2018-05-04T00:43:26.047Z,6.20
2018-05-04T00:45:53.624Z,6.20
2018-05-04T00:48:21.187Z,6.20
2018-05-04T00:50:48.769Z,6.10
2018-05-04T00:53:16.717Z,6.10
2018-05-04T00:55:44.355Z,6.00
2018-05-04T00:58:11.921Z,6.00
2018-05-04T01:00:39.512Z,6.00
2018-05-04T01:03:07.163Z,6.00
2018-05-04T01:05:34.764Z,5.90
2018-05-04T01:08:03.118Z,5.90
2018-05-04T01:10:30.767Z,5.90
2018-05-04T01:12:58.331Z,5.80
2018-05-04T01:15:25.888Z,5.80
2018-05-04T01:17:53.491Z,5.80
2018-05-04T01:20:21.069Z,5.80
2018-05-04T01:22:48.665Z,5.70
2018-05-04T01:25:16.272Z,5.70
2018-05-04T01:27:44.674Z,5.60
2018-05-04T01:30:12.239Z,5.60
2018-05-04T01:32:39.833Z,5.60
2018-05-04T01:35:07.401Z,5.60
2018-05-04T01:37:34.991Z,5.60
2018-05-04T01:40:03.332Z,5.50
2018-05-04T01:42:30.924Z,5.50
2018-05-04T01:44:59.301Z,5.40
2018-05-04T01:47:27.673Z,5.30
2018-05-04T01:49:55.220Z,5.30
2018-05-04T01:52:22.799Z,5.30
2018-05-04T01:54:51.137Z,5.40
2018-05-04T01:57:18.711Z,5.30
2018-05-04T01:59:47.043Z,5.30
2018-05-04T02:02:14.768Z,5.30
2018-05-04T02:04:42.328Z,5.30
2018-05-04T02:07:09.919Z,5.30
2018-05-04T02:09:38.252Z,5.20
2018-05-04T02:12:05.825Z,5.20
2018-05-04T02:14:33.470Z,5.10
2018-05-04T02:17:01.055Z,5.10
2018-05-04T02:19:28.619Z,5.10
2018-05-04T02:21:56.199Z,5.10
2018-05-04T02:24:24.533Z,5.20
2018-05-04T02:26:52.116Z,5.20
2018-05-04T02:29:19.716Z,5.20
2018-05-04T02:31:47.299Z,5.20
2018-05-04T02:34:14.877Z,5.20
2018-05-04T02:36:42.460Z,5.10
2018-05-04T02:39:10.096Z,5.00
2018-05-04T02:41:37.661Z,5.00
2018-05-04T02:44:05.244Z,5.00
2018-05-04T02:46:32.795Z,5.00
2018-05-04T02:49:00.380Z,4.90
2018-05-04T02:51:28.732Z,4.80
2018-05-04T02:53:56.293Z,4.80
2018-05-04T02:56:23.872Z,4.80
2018-05-04T02:58:51.449Z,4.70
2018-05-04T03:01:19.799Z,4.70
2018-05-04T03:03:47.559Z,4.70
2018-05-04T03:06:15.111Z,4.70
2018-05-04T03:08:42.678Z,4.60
2018-05-04T03:11:10.684Z,4.50
2018-05-04T03:13:39.027Z,4.50
2018-05-04T03:16:07.480Z,4.40
2018-05-04T03:18:35.078Z,4.40
2018-05-04T03:21:02.641Z,4.40
2018-05-04T03:23:30.206Z,4.40
2018-05-04T03:25:57.768Z,4.30
2018-05-04T03:28:25.328Z,4.30
2018-05-04T03:30:52.973Z,4.30
2018-05-04T03:33:20.535Z,4.30
2018-05-04T03:35:48.116Z,4.30
2018-05-04T03:38:15.691Z,4.30
2018-05-04T03:40:44.033Z,4.40
2018-05-04T03:43:11.611Z,4.40
2018-05-04T03:45:39.185Z,4.40
2018-05-04T03:48:06.768Z,4.30
2018-05-04T03:50:34.342Z,4.40
2018-05-04T03:53:01.915Z,4.40
2018-05-04T03:55:29.544Z,4.50
2018-05-04T03:58:09.678Z,4.40
2018-05-04T04:00:49.010Z,4.40
2018-05-04T04:03:28.417Z,4.40
2018-05-04T04:05:55.994Z,4.40
2018-05-04T04:08:23.578Z,4.40
2018-05-04T04:10:51.153Z,4.40
2018-05-04T04:13:19.501Z,4.40
2018-05-04T04:15:47.143Z,4.40
2018-05-04T04:18:15.504Z,4.50
2018-05-04T04:20:43.050Z,4.50
2018-05-04T04:23:10.644Z,4.50
2018-05-04T04:25:38.193Z,4.60
2018-05-04T04:28:05.769Z,4.50
2018-05-04T04:30:33.359Z,4.60
2018-05-04T04:33:00.999Z,4.60
2018-05-04T04:35:28.584Z,4.70
2018-05-04T04:37:56.223Z,5.00
2018-05-04T04:40:23.803Z,5.40
2018-05-04T04:42:51.360Z,5.90
2018-05-04T04:45:18.960Z,6.60
2018-05-04T04:47:46.522Z,7.40
2018-05-04T04:50:14.847Z,8.90
2018-05-04T04:52:42.430Z,8.90
2018-05-04T04:55:10.005Z,9.70
2018-05-04T04:57:38.328Z,11.50
2018-05-04T05:00:05.924Z,11.50
2018-05-04T05:02:33.519Z,12.40
2018-05-04T05:05:01.863Z,13.20
2018-05-04T05:07:29.444Z,13.10
2018-05-04T05:09:57.787Z,12.20
2018-05-04T05:12:25.346Z,12.20
2018-05-04T05:14:52.943Z,11.70
2018-05-04T05:17:21.263Z,13.40
2018-05-04T05:19:48.857Z,13.40
2018-05-04T05:22:16.424Z,14.50
2018-05-04T05:24:44.075Z,15.40
2018-05-04T05:27:11.625Z,16.00
2018-05-04T05:29:39.274Z,16.00
2018-05-04T05:32:06.791Z,16.50
2018-05-04T05:34:35.126Z,18.80
2018-05-04T05:37:02.735Z,18.80
2018-05-04T05:39:31.055Z,21.00
2018-05-04T05:41:58.617Z,20.90
2018-05-04T05:44:26.197Z,21.70
2018-05-04T05:46:53.784Z,22.50
2018-05-04T05:49:22.116Z,23.40
2018-05-04T05:51:49.820Z,23.40
2018-05-04T05:54:17.431Z,24.00
2018-05-04T05:56:45.040Z,24.30
2018-05-04T05:59:12.615Z,24.70
2018-05-04T06:01:41.119Z,25.40
2018-05-04T06:04:09.530Z,25.90
2018-05-04T06:06:37.031Z,25.80
2018-05-04T06:09:06.091Z,26.60
2018-05-04T06:11:33.684Z,26.60
2018-05-04T06:14:01.510Z,27.00
2018-05-04T06:16:29.072Z,26.40
2018-05-04T06:18:56.723Z,25.80
2018-05-04T06:21:24.278Z,26.10
2018-05-04T06:23:51.856Z,25.80
2018-05-04T06:26:19.445Z,25.50
2018-05-04T06:28:47.511Z,26.30
2018-05-04T06:31:15.239Z,26.10
2018-05-04T06:33:42.841Z,25.80
2018-05-04T06:36:10.430Z,25.50
2018-05-04T06:38:38.780Z,25.80
2018-05-04T06:41:06.372Z,25.80
2018-05-04T06:43:34.717Z,26.10
2018-05-04T06:46:03.060Z,26.10
2018-05-04T06:48:30.647Z,26.10
2018-05-04T06:50:59.010Z,26.10
2018-05-04T06:53:26.699Z,26.10
2018-05-04T06:55:54.258Z,25.70
2018-05-04T06:58:21.887Z,25.50
2018-05-04T07:00:49.473Z,25.50
2018-05-04T07:03:17.027Z,26.50
2018-05-04T07:05:44.625Z,27.10
2018-05-04T07:08:12.198Z,26.70
2018-05-04T07:10:40.590Z,26.80
2018-05-04T07:13:08.936Z,27.00
2018-05-04T07:15:36.508Z,27.00
2018-05-04T07:18:04.060Z,26.70
2018-05-04T07:20:31.655Z,26.70
2018-05-04T07:22:59.252Z,26.80
2018-05-04T07:25:26.897Z,26.70
2018-05-04T07:27:54.466Z,26.70
2018-05-04T07:30:22.053Z,27.30
2018-05-04T07:32:49.632Z,27.40
2018-05-04T07:35:17.272Z,26.70
2018-05-04T07:37:44.853Z,26.80
2018-05-04T07:40:12.415Z,26.50
2018-05-04T07:42:39.987Z,26.40
2018-05-04T07:45:08.321Z,26.10
2018-05-04T07:47:35.952Z,26.10
2018-05-04T07:50:03.516Z,26.50
2018-05-04T07:52:31.114Z,26.70
2018-05-04T07:54:58.679Z,27.40
2018-05-04T07:57:26.267Z,28.50
2018-05-04T07:59:53.816Z,29.00
2018-05-04T08:02:21.392Z,29.20
2018-05-04T08:04:48.941Z,28.70
2018-05-04T08:07:16.506Z,28.90
2018-05-04T08:09:44.070Z,29.10
2018-05-04T08:12:11.740Z,29.50
2018-05-04T08:14:40.112Z,29.20
2018-05-04T08:17:07.683Z,29.10
2018-05-04T08:19:36.024Z,29.50
2018-05-04T08:22:03.622Z,29.50
2018-05-04T08:24:31.980Z,29.20
2018-05-04T08:26:59.564Z,29.20
2018-05-04T08:29:27.925Z,29.70
2018-05-04T08:31:55.520Z,29.60
2018-05-04T08:34:24.013Z,29.50
2018-05-04T08:36:51.596Z,29.50
2018-05-04T08:39:19.212Z,29.20
2018-05-04T08:41:47.595Z,28.60
2018-05-04T08:44:16.073Z,28.30
2018-05-04T08:46:44.413Z,29.10
2018-05-04T08:49:11.997Z,29.20
2018-05-04T08:51:39.567Z,29.20
2018-05-04T08:54:07.169Z,28.40
2018-05-04T08:56:34.725Z,28.90
2018-05-04T08:59:02.412Z,29.50
2018-05-04T09:01:29.963Z,29.80
2018-05-04T09:03:57.569Z,30.70
2018-05-04T09:06:25.151Z,30.50
2018-05-04T09:08:53.747Z,29.60
2018-05-04T09:11:21.340Z,29.60
2018-05-04T09:13:48.920Z,29.30
2018-05-04T09:16:16.487Z,28.70
2018-05-04T09:18:44.057Z,28.30
2018-05-04T09:21:11.643Z,28.20
2018-05-04T09:23:39.243Z,28.30
2018-05-04T09:26:06.818Z,27.60
2018-05-04T09:28:34.608Z,27.40
2018-05-04T09:31:02.838Z,28.60
2018-05-04T09:33:30.340Z,28.60
2018-05-04T09:35:57.926Z,29.20
2018-05-04T09:38:26.269Z,28.10
2018-05-04T09:40:53.967Z,28.10
2018-05-04T09:43:22.387Z,27.90
2018-05-04T09:45:49.876Z,27.90
2018-05-04T09:48:17.472Z,27.60
2018-05-04T09:50:45.800Z,27.50
2018-05-04T09:53:13.415Z,27.50
2018-05-04T09:55:40.983Z,27.60
2018-05-04T09:58:08.559Z,28.00
2018-05-04T10:00:36.103Z,28.20
2018-05-04T10:03:03.691Z,28.80
2018-05-04T10:05:31.254Z,28.90
2018-05-04T10:07:58.945Z,28.30
2018-05-04T10:10:26.496Z,27.50
2018-05-04T10:12:54.073Z,27.20
2018-05-04T10:15:21.704Z,26.90
2018-05-04T10:17:49.275Z,27.00
2018-05-04T10:20:16.849Z,27.00
2018-05-04T10:22:44.499Z,26.40
2018-05-04T10:25:12.199Z,25.70
2018-05-04T10:27:40.563Z,26.30
2018-05-04T10:30:08.148Z,26.30
2018-05-04T10:32:36.491Z,26.70
2018-05-04T10:35:04.204Z,26.70
2018-05-04T10:37:32.541Z,26.70
2018-05-04T10:40:00.164Z,26.60
2018-05-04T10:42:27.733Z,26.50
2018-05-04T10:44:55.307Z,25.90
2018-05-04T10:47:22.868Z,25.60
2018-05-04T10:49:50.451Z,25.20
2018-05-04T10:52:18.016Z,25.70
2018-05-04T10:54:45.694Z,25.20
2018-05-04T10:57:14.113Z,25.60
2018-05-04T10:59:41.693Z,25.60
2018-05-04T11:02:09.268Z,25.50
2018-05-04T11:04:36.867Z,25.70
2018-05-04T11:07:05.221Z,25.10
2018-05-04T11:09:32.801Z,25.10
2018-05-04T11:12:01.137Z,24.80
2018-05-04T11:14:28.696Z,24.80
2018-05-04T11:16:56.262Z,24.10
2018-05-04T11:19:23.829Z,23.80
2018-05-04T11:21:51.517Z,24.20
2018-05-04T11:24:19.075Z,24.70
2018-05-04T11:26:47.438Z,24.20
2018-05-04T11:29:15.056Z,24.20
2018-05-04T11:31:42.652Z,23.60
2018-05-04T11:34:10.205Z,23.20
2018-05-04T11:36:37.801Z,23.10
2018-05-04T11:39:06.262Z,23.10
2018-05-04T11:41:33.825Z,23.10
2018-05-04T11:44:01.450Z,22.70
2018-05-04T11:46:29.032Z,22.40
2018-05-04T11:48:56.610Z,22.30
2018-05-04T11:51:24.167Z,22.10
2018-05-04T11:53:51.989Z,21.90
2018-05-04T11:56:19.539Z,21.80
2018-05-04T11:58:47.130Z,21.80
2018-05-04T12:01:14.757Z,21.30
2018-05-04T12:03:42.357Z,21.40
2018-05-04T12:06:09.924Z,21.50
2018-05-04T12:08:37.524Z,21.30
2018-05-04T12:11:05.071Z,21.30
2018-05-04T12:13:32.658Z,21.30
2018-05-04T12:16:00.981Z,21.30
2018-05-04T12:18:28.565Z,21.30
2018-05-04T12:20:56.127Z,21.00
2018-05-04T12:23:23.726Z,20.90
2018-05-04T12:25:52.059Z,20.70
2018-05-04T12:28:19.637Z,20.70
2018-05-04T12:30:47.231Z,20.90
2018-05-04T12:33:15.588Z,20.80
2018-05-04T12:35:43.935Z,20.80
2018-05-04T12:38:11.537Z,20.80
2018-05-04T12:40:39.909Z,21.00
2018-05-04T12:43:07.465Z,21.00
2018-05-04T12:45:35.816Z,21.20
2018-05-04T12:48:03.412Z,21.20
2018-05-04T12:50:31.777Z,21.20
2018-05-04T12:52:59.343Z,21.10
2018-05-04T12:55:27.680Z,21.30
2018-05-04T12:57:55.285Z,21.30
2018-05-04T13:00:22.932Z,21.40
2018-05-04T13:02:50.490Z,21.50
2018-05-04T13:05:18.093Z,21.40
2018-05-04T13:07:46.440Z,21.30
2018-05-04T13:10:13.994Z,21.20
2018-05-04T13:12:41.596Z,21.00
2018-05-04T13:15:09.174Z,21.00
2018-05-04T13:17:36.748Z,21.10
2018-05-04T13:20:04.337Z,21.10
2018-05-04T13:22:31.934Z,21.10
2018-05-04T13:24:59.499Z,21.00
2018-05-04T13:27:27.067Z,21.00
2018-05-04T13:29:54.653Z,21.00
2018-05-04T13:32:22.241Z,20.90
2018-05-04T13:34:50.572Z,20.90
2018-05-04T13:37:18.243Z,20.90
2018-05-04T13:39:45.836Z,21.10
2018-05-04T13:42:13.429Z,21.00
2018-05-04T13:44:41.852Z,20.90
2018-05-04T13:47:09.391Z,20.80
2018-05-04T13:49:36.960Z,20.80
2018-05-04T13:52:04.584Z,20.80
2018-05-04T13:54:32.144Z,20.80
2018-05-04T13:56:59.756Z,20.70
2018-05-04T13:59:27.454Z,20.40
2018-05-04T14:01:55.056Z,20.40
2018-05-04T14:04:22.639Z,20.40
2018-05-04T14:06:50.420Z,20.40
2018-05-04T14:09:18.777Z,20.20
2018-05-04T14:11:46.384Z,20.20
2018-05-04T14:14:14.822Z,20.10
2018-05-04T14:16:42.401Z,20.10
2018-05-04T14:19:10.087Z,20.20
2018-05-04T14:21:37.706Z,20.20
2018-05-04T14:24:05.335Z,20.20
2018-05-04T14:26:32.932Z,20.30
2018-05-04T14:29:00.522Z,20.30
2018-05-04T14:31:28.143Z,20.20
2018-05-04T14:33:55.707Z,20.20
2018-05-04T14:36:23.308Z,20.10
2018-05-04T14:38:50.915Z,20.20
2018-05-04T14:41:19.287Z,20.10
2018-05-04T14:43:47.683Z,20.20
2018-05-04T14:46:15.308Z,20.20
2018-05-04T14:48:42.908Z,20.10
2018-05-04T14:51:10.464Z,20.10
2018-05-04T14:53:38.061Z,20.00
2018-05-04T14:56:05.709Z,19.90
2018-05-04T14:58:33.348Z,19.90
2018-05-04T15:01:00.921Z,19.90
2018-05-04T15:03:29.311Z,19.80
2018-05-04T15:05:56.895Z,19.70
2018-05-04T15:08:24.493Z,19.80
2018-05-04T15:10:52.097Z,19.70
2018-05-04T15:13:19.857Z,19.80
2018-05-04T15:15:47.482Z,19.80
2018-05-04T15:18:15.107Z,19.80
2018-05-04T15:20:42.691Z,19.80
2018-05-04T15:23:10.256Z,19.80
2018-05-04T15:25:37.883Z,19.70
2018-05-04T15:28:05.475Z,19.60
2018-05-04T15:30:33.093Z,19.60
2018-05-04T15:33:00.693Z,19.60
2018-05-04T15:35:28.244Z,19.50
2018-05-04T15:37:55.897Z,19.50
2018-05-04T15:40:23.471Z,19.50
2018-05-04T15:42:51.074Z,19.50
2018-05-04T15:45:19.429Z,19.40
2018-05-04T15:47:47.004Z,19.30
2018-05-04T15:50:20.884Z,19.30
2018-05-04T15:52:49.304Z,19.40
2018-05-04T15:55:16.847Z,19.40
2018-05-04T15:57:44.476Z,19.40
2018-05-04T16:00:12.057Z,19.30
2018-05-04T16:02:39.706Z,19.30
2018-05-04T16:05:07.286Z,19.20
2018-05-04T16:07:34.883Z,19.20
2018-05-04T16:10:02.470Z,19.00
2018-05-04T16:12:30.060Z,19.00
2018-05-04T16:14:57.680Z,18.90
2018-05-04T16:17:25.292Z,18.80
2018-05-04T16:19:52.840Z,18.80
2018-05-04T16:22:20.614Z,18.80
2018-05-04T16:24:48.921Z,18.80
2018-05-04T16:27:17.256Z,18.80
2018-05-04T16:29:44.861Z,18.80
2018-05-04T16:32:13.194Z,18.70
2018-05-04T16:34:40.811Z,18.70
2018-05-04T16:37:08.392Z,18.60
2018-05-04T16:39:35.985Z,18.70
2018-05-04T16:42:03.591Z,18.60
2018-05-04T16:44:32.091Z,18.50
2018-05-04T16:47:05.405Z,18.50
2018-05-04T16:49:33.707Z,18.40
2018-05-04T16:52:01.277Z,18.40
2018-05-04T16:54:28.852Z,18.40
2018-05-04T16:56:57.283Z,18.30
2018-05-04T16:59:24.872Z,18.20
2018-05-04T17:01:52.435Z,18.20
2018-05-04T17:04:20.036Z,18.20
2018-05-04T17:06:47.606Z,18.10
2018-05-04T17:09:15.243Z,18.00
2018-05-04T17:11:42.849Z,18.10
2018-05-04T17:14:10.404Z,18.00
2018-05-04T17:16:37.986Z,17.90
2018-05-04T17:19:05.580Z,17.90
2018-05-04T17:21:33.948Z,17.80
2018-05-04T17:24:01.544Z,17.80
2018-05-04T17:26:29.128Z,17.80
2018-05-04T17:28:56.696Z,17.70
2018-05-04T17:31:24.556Z,17.70
2018-05-04T17:34:01.740Z,17.60
2018-05-04T17:36:29.341Z,17.60
2018-05-04T17:38:56.904Z,17.50
2018-05-04T17:41:24.526Z,17.50
2018-05-04T17:43:52.135Z,17.40
2018-05-04T17:46:19.746Z,17.30
2018-05-04T17:48:47.345Z,17.30
2018-05-04T17:51:14.948Z,17.20
2018-05-04T17:53:42.579Z,17.20
2018-05-04T17:56:10.149Z,17.10
2018-05-04T17:58:37.723Z,17.00
2018-05-04T18:01:06.098Z,16.90
2018-05-04T18:03:34.444Z,16.80
2018-05-04T18:06:02.065Z,16.80
2018-05-04T18:08:29.644Z,16.80
2018-05-04T18:10:57.207Z,16.70
2018-05-04T18:13:24.845Z,16.60
2018-05-04T18:15:52.419Z,16.60
2018-05-04T18:18:19.988Z,16.50
2018-05-04T18:20:47.603Z,16.50
2018-05-04T18:23:15.974Z,16.30
2018-05-04T18:25:43.575Z,16.30
2018-05-04T18:28:11.180Z,16.20
2018-05-04T18:30:38.747Z,16.10
2018-05-04T18:33:06.421Z,16.10
2018-05-04T18:35:34.709Z,15.90
2018-05-04T18:38:03.057Z,15.80
2018-05-04T18:40:30.685Z,15.80
2018-05-04T18:42:58.259Z,15.70
2018-05-04T18:45:25.834Z,15.60
2018-05-04T18:47:53.415Z,15.50
2018-05-04T18:50:21.050Z,15.50
2018-05-04T18:52:48.648Z,15.40
2018-05-04T18:55:16.289Z,15.30
2018-05-04T18:57:43.877Z,15.20
2018-05-04T19:00:11.516Z,15.10
2018-05-04T19:02:44.666Z,15.00
2018-05-04T19:05:12.414Z,14.90
2018-05-04T19:07:40.771Z,14.80
2018-05-04T19:10:08.397Z,14.80
2018-05-04T19:12:35.985Z,14.70
2018-05-04T19:15:03.575Z,14.60
2018-05-04T19:17:31.924Z,14.40
2018-05-04T19:19:59.525Z,14.40
2018-05-04T19:22:27.127Z,14.40
2018-05-04T19:24:54.727Z,14.30
2018-05-04T19:27:23.082Z,14.30
2018-05-04T19:29:50.676Z,14.20
2018-05-04T19:32:19.075Z,14.10
2018-05-04T19:34:46.654Z,14.10
2018-05-04T19:37:14.188Z,14.00
2018-05-04T19:39:41.794Z,14.00
2018-05-04T19:42:09.396Z,13.90
2018-05-04T19:44:37.725Z,13.80
2018-05-04T19:47:05.320Z,13.80
2018-05-04T19:49:32.914Z,13.70
2018-05-04T19:52:01.284Z,13.70
2018-05-04T19:54:29.652Z,13.60
2018-05-04T19:56:58.062Z,13.60
2018-05-04T19:59:25.684Z,13.60
2018-05-04T20:01:53.280Z,13.50
2018-05-04T20:04:20.857Z,13.50
2018-05-04T20:06:48.452Z,13.40
2018-05-04T20:09:16.092Z,13.30
2018-05-04T20:11:43.652Z,13.20
2018-05-04T20:14:11.263Z,13.20
2018-05-04T20:16:39.660Z,13.00
2018-05-04T20:19:07.246Z,13.00
2018-05-04T20:21:34.863Z,12.90
2018-05-04T20:24:02.580Z,13.00
2018-05-04T20:26:30.188Z,12.90
2018-05-04T20:28:57.764Z,13.00
2018-05-04T20:31:26.120Z,13.00
2018-05-04T20:33:53.683Z,12.90
2018-05-04T20:36:22.052Z,14.50
2018-05-04T20:38:49.993Z,12.90
2018-05-04T20:41:17.595Z,12.80
2018-05-04T20:43:45.975Z,12.80
2018-05-04T20:46:13.539Z,12.70
2018-05-04T20:48:41.911Z,12.70
2018-05-04T20:51:09.502Z,12.70
2018-05-04T20:53:37.828Z,12.70
2018-05-04T20:56:05.426Z,12.60
2018-05-04T20:58:33.776Z,12.60
2018-05-04T21:01:01.375Z,12.60
2018-05-04T21:03:29.721Z,12.40
2018-05-04T21:05:57.304Z,12.40
2018-05-04T21:08:24.886Z,12.30
2018-05-04T21:10:52.540Z,12.30
2018-05-04T21:13:20.138Z,12.20
2018-05-04T21:15:47.748Z,12.20
2018-05-04T21:18:16.164Z,12.10
2018-05-04T21:20:43.752Z,12.10
2018-05-04T21:23:11.341Z,12.00
2018-05-04T21:25:38.923Z,12.00
2018-05-04T21:28:07.345Z,11.80
2018-05-04T21:30:34.944Z,11.80
2018-05-04T21:33:02.636Z,11.80
2018-05-04T21:35:30.207Z,11.70
2018-05-04T21:37:57.804Z,11.60
2018-05-04T21:40:25.390Z,11.60
2018-05-04T21:42:53.021Z,11.50
2018-05-04T21:45:20.602Z,11.40
2018-05-04T21:47:48.268Z,11.40
2018-05-04T21:50:15.841Z,11.40
2018-05-04T21:52:43.461Z,11.30
2018-05-04T21:55:11.040Z,11.10
2018-05-04T21:57:38.620Z,11.10
2018-05-04T22:00:06.205Z,11.00
2018-05-04T22:02:34.567Z,10.90
2018-05-04T22:05:03.011Z,10.90
2018-05-04T22:07:30.576Z,10.80
2018-05-04T22:09:58.175Z,10.80
2018-05-04T22:12:25.779Z,10.60
2018-05-04T22:14:53.364Z,10.60
2018-05-04T22:17:20.975Z,10.60
2018-05-04T22:19:49.355Z,10.40
2018-05-04T22:22:17.692Z,10.40
2018-05-04T22:24:45.285Z,10.30
2018-05-04T22:27:13.634Z,10.30
2018-05-04T22:29:41.225Z,10.30
2018-05-04T22:32:09.585Z,10.20
2018-05-04T22:34:37.159Z,10.20
2018-05-04T22:37:05.511Z,10.20
2018-05-04T22:39:33.136Z,10.20
2018-05-04T22:42:00.824Z,10.20
2018-05-04T22:44:28.429Z,10.20
2018-05-04T22:46:56.769Z,10.00
2018-05-04T22:49:24.335Z,10.10
2018-05-04T22:51:51.917Z,10.10
2018-05-04T22:54:19.476Z,10.00
2018-05-04T22:56:47.050Z,10.00
2018-05-04T22:59:15.405Z,10.00
2018-05-04T23:01:42.997Z,10.00
2018-05-04T23:04:11.378Z,10.00
2018-05-04T23:06:39.740Z,10.00
2018-05-04T23:09:07.442Z,10.00
2018-05-04T23:11:35.047Z,9.90
2018-05-04T23:14:02.600Z,9.90
2018-05-04T23:16:30.187Z,9.90
2018-05-04T23:18:57.799Z,9.90
2018-05-04T23:21:25.410Z,9.90
2018-05-04T23:23:52.995Z,9.90
2018-05-04T23:26:21.315Z,9.80
2018-05-04T23:28:48.894Z,9.80
2018-05-04T23:31:16.472Z,9.90
2018-05-04T23:33:44.064Z,9.90
2018-05-04T23:36:11.612Z,9.90
2018-05-04T23:38:39.969Z,9.90
2018-05-04T23:41:07.550Z,9.90
2018-05-04T23:43:35.975Z,9.90
2018-05-04T23:46:03.456Z,9.80
2018-05-04T23:48:31.039Z,9.80
2018-05-04T23:50:58.607Z,9.80
2018-05-04T23:53:26.979Z,9.70
2018-05-04T23:55:54.560Z,9.70
2018-05-04T23:58:22.144Z,9.70
